createdAt,value
2023-04-16T00:04:59.794Z,100251.56
2023-04-16T00:10:01.825Z,100253.67
2023-04-16T00:15:04.160Z,100256.08
2023-04-16T00:20:06.586Z,100257.63
2023-04-16T00:25:09.106Z,100258.52
2023-04-16T00:30:11.147Z,100264.03
2023-04-16T00:35:12.665Z,100262.67
2023-04-16T00:40:14.183Z,100257.22
2023-04-16T00:45:16.009Z,100257.97
2023-04-16T00:50:17.753Z,100256.53
2023-04-16T00:55:21.393Z,100253.39
2023-04-16T01:00:22.856Z,100260.99
2023-04-16T01:05:24.264Z,100268.39
2023-04-16T01:10:25.714Z,100269.08
2023-04-16T01:15:27.331Z,100272.83
2023-04-16T01:20:29.545Z,100265.27
2023-04-16T01:25:31.081Z,100261.12
2023-04-16T01:30:32.696Z,100262.31
2023-04-16T01:35:34.251Z,100263.23
2023-04-16T01:40:37.843Z,100270.74
2023-04-16T01:45:39.353Z,100277.75
2023-04-16T01:50:41.596Z,100278.11
2023-04-16T01:55:43.072Z,100283.76
2023-04-16T02:00:44.651Z,100282.34
2023-04-16T02:05:47.340Z,100290.73
2023-04-16T02:10:50.371Z,100295.98
2023-04-16T02:15:52.826Z,100302.51
2023-04-16T02:20:54.403Z,100308.71
2023-04-16T02:25:55.937Z,100315.55
2023-04-16T02:30:59.164Z,100320.64
2023-04-16T02:36:00.746Z,100323.73
2023-04-16T02:41:02.241Z,100325.27
2023-04-16T02:46:04.098Z,100326.31
2023-04-16T02:51:05.955Z,100328.00
2023-04-16T02:56:07.788Z,100329.39
2023-04-16T03:01:10.280Z,100331.11
2023-04-16T03:06:11.786Z,100331.35
2023-04-16T03:11:13.279Z,100334.62
2023-04-16T03:16:14.822Z,100333.42
2023-04-16T03:21:16.432Z,100336.34
2023-04-16T03:26:17.907Z,100331.19
2023-04-16T03:31:19.481Z,100334.13
2023-04-16T03:36:21.103Z,100342.55
2023-04-16T03:41:22.605Z,100340.30
2023-04-16T03:46:24.084Z,100341.67
2023-04-16T03:51:26.363Z,100345.27
2023-04-16T03:56:28.000Z,100345.13
2023-04-16T04:01:29.486Z,100352.13
2023-04-16T04:06:31.115Z,100361.33
2023-04-16T04:11:33.116Z,100369.86
2023-04-16T04:16:35.410Z,100372.09
2023-04-16T04:21:36.915Z,100381.67
2023-04-16T04:26:38.417Z,100388.84
2023-04-16T04:31:40.038Z,100393.75
2023-04-16T04:36:41.589Z,100397.16
2023-04-16T04:41:43.208Z,100401.23
2023-04-16T04:46:44.750Z,100405.25
2023-04-16T04:51:46.456Z,100406.03
2023-04-16T04:56:47.951Z,100408.89
2023-04-16T05:01:50.158Z,100409.20
2023-04-16T05:06:51.667Z,100406.60
2023-04-16T05:11:53.234Z,100410.61
2023-04-16T05:16:54.747Z,100418.41
2023-04-16T05:21:56.319Z,100418.30
2023-04-16T05:26:58.097Z,100415.08
2023-04-16T05:31:59.638Z,100418.17
2023-04-16T05:37:01.498Z,100422.31
2023-04-16T05:42:03.000Z,100418.25
2023-04-16T05:47:04.499Z,100421.52
2023-04-16T05:52:07.457Z,100423.11
2023-04-16T05:57:08.981Z,100421.17
2023-04-16T06:02:10.572Z,100423.72
2023-04-16T06:07:12.225Z,100428.77
2023-04-16T06:12:13.747Z,100433.73
2023-04-16T06:17:15.581Z,100433.94
2023-04-16T06:22:17.104Z,100433.70
2023-04-16T06:27:18.569Z,100436.94
2023-04-16T06:32:20.104Z,100444.30
2023-04-16T06:37:21.850Z,100447.73
2023-04-16T06:42:23.595Z,100451.09
2023-04-16T06:47:25.184Z,100455.05
2023-04-16T06:52:27.050Z,100459.55
2023-04-16T06:57:28.561Z,100457.02
2023-04-16T07:02:30.230Z,100458.02
2023-04-16T07:07:32.576Z,100458.14
2023-04-16T07:12:34.067Z,100461.52
2023-04-16T07:17:35.734Z,100472.38
2023-04-16T07:22:37.358Z,100482.87
2023-04-16T07:27:38.858Z,100488.34
2023-04-16T07:32:40.388Z,100495.80
2023-04-16T07:37:42.005Z,100501.73
2023-04-16T07:42:43.647Z,100503.45
2023-04-16T07:47:45.883Z,100506.41
2023-04-16T07:52:47.484Z,100510.09
2023-04-16T07:57:48.979Z,100517.53
2023-04-16T08:02:50.890Z,100526.16
2023-04-16T08:07:52.726Z,100532.19
2023-04-16T08:12:54.214Z,100536.71
2023-04-16T08:17:55.735Z,100535.45
2023-04-16T08:22:57.364Z,100537.91
2023-04-16T08:27:58.865Z,100536.76
2023-04-16T08:33:00.487Z,100536.77
2023-04-16T08:38:04.802Z,100537.88
2023-04-16T08:43:12.432Z,100540.56
2023-04-16T08:48:15.150Z,100543.77
2023-04-16T08:53:19.348Z,100542.34
2023-04-16T08:58:22.970Z,100541.94
2023-04-16T09:03:24.843Z,100544.14
2023-04-16T09:08:27.678Z,100553.63
2023-04-16T09:13:29.179Z,100559.66
2023-04-16T09:18:31.171Z,100560.98
2023-04-16T09:23:32.718Z,100562.18
2023-04-16T09:28:44.661Z,100568.11
2023-04-16T09:34:02.929Z,100570.06
2023-04-16T09:39:04.532Z,100573.15
2023-04-16T09:44:06.180Z,100580.44
2023-04-16T09:49:15.525Z,100583.29
2023-04-16T09:54:17.063Z,100585.13
2023-04-16T09:59:18.581Z,100584.03
2023-04-16T10:04:20.574Z,100588.04
2023-04-16T10:09:22.901Z,100589.36
2023-04-16T10:14:24.531Z,100589.05
2023-04-16T10:19:27.519Z,100596.73
2023-04-16T10:24:33.821Z,100598.31
2023-04-16T10:29:36.732Z,100597.43
2023-04-16T10:34:38.329Z,100604.20
2023-04-16T10:39:39.868Z,100604.68
2023-04-16T10:44:44.293Z,100602.51
2023-04-16T10:49:48.156Z,100604.56
2023-04-16T10:54:50.572Z,100605.23
2023-04-16T10:59:52.363Z,100603.34
2023-04-16T11:04:57.234Z,100599.40
2023-04-16T11:10:06.708Z,100601.68
2023-04-16T11:15:13.221Z,100599.55
2023-04-16T11:20:27.901Z,100601.55
2023-04-16T11:25:30.325Z,100599.10
2023-04-16T11:30:38.382Z,100599.66
2023-04-16T11:35:40.189Z,100600.35
2023-04-16T11:40:42.309Z,100599.54
2023-04-16T11:46:00.022Z,100597.91
2023-04-16T11:51:01.800Z,100598.83
2023-04-16T11:56:04.778Z,100592.63
2023-04-16T12:01:08.056Z,100597.86
2023-04-16T12:06:10.506Z,100599.15
2023-04-16T12:11:12.367Z,100593.89
2023-04-16T12:16:20.099Z,100593.59
2023-04-16T12:21:21.751Z,100593.57
2023-04-16T12:26:25.437Z,100595.64
2023-04-16T12:31:39.408Z,100590.73
2023-04-16T12:36:42.493Z,100582.80
2023-04-16T12:41:44.987Z,100579.39
2023-04-16T12:46:46.813Z,100577.70
2023-04-16T12:51:49.160Z,100578.67
2023-04-16T12:56:50.673Z,100577.02
2023-04-16T13:01:52.277Z,100581.09
2023-04-16T13:06:54.054Z,100586.53
2023-04-16T13:11:56.038Z,100586.48
2023-04-16T13:16:57.566Z,100579.20
2023-04-16T13:21:59.559Z,100571.02
2023-04-16T13:27:01.150Z,100577.29
2023-04-16T13:32:03.632Z,100575.44
2023-04-16T13:37:05.178Z,100576.86
2023-04-16T13:42:06.815Z,100578.54
2023-04-16T13:47:08.722Z,100577.70
2023-04-16T13:52:10.205Z,100577.60
2023-04-16T13:57:12.608Z,100577.96
2023-04-16T14:02:14.707Z,100579.39
2023-04-16T14:07:16.311Z,100580.15
2023-04-16T14:12:17.944Z,100578.73
2023-04-16T14:17:19.531Z,100573.96
2023-04-16T14:22:21.361Z,100571.45
2023-04-16T14:27:23.041Z,100572.80
2023-04-16T14:32:24.610Z,100571.70
2023-04-16T14:37:26.784Z,100571.51
2023-04-16T14:42:28.478Z,100570.16
2023-04-16T14:47:30.099Z,100568.83
2023-04-16T14:52:32.376Z,100574.27
2023-04-16T14:57:34.150Z,100575.22
2023-04-16T15:02:36.258Z,100584.02
2023-04-16T15:07:37.988Z,100588.23
2023-04-16T15:12:39.955Z,100590.10
2023-04-16T15:17:43.659Z,100589.19
2023-04-16T15:22:45.179Z,100584.77
2023-04-16T15:27:46.705Z,100580.89
2023-04-16T15:32:48.287Z,100575.17
2023-04-16T15:37:52.329Z,100582.83
2023-04-16T15:42:55.948Z,100591.61
2023-04-16T15:47:57.746Z,100592.61
2023-04-16T15:52:59.378Z,100593.35
2023-04-16T15:58:01.063Z,100599.34
2023-04-16T16:03:02.947Z,100599.98
2023-04-16T16:08:04.849Z,100600.31
2023-04-16T16:13:08.047Z,100605.89
2023-04-16T16:18:10.103Z,100611.49
2023-04-16T16:23:11.926Z,100614.02
2023-04-16T16:28:13.418Z,100620.03
2023-04-16T16:33:15.111Z,100624.33
2023-04-16T16:38:16.662Z,100629.65
2023-04-16T16:43:18.365Z,100636.13
2023-04-16T16:48:19.871Z,100642.21
2023-04-16T16:53:21.380Z,100649.27
2023-04-16T16:58:22.917Z,100655.27
2023-04-16T17:03:24.452Z,100653.90
2023-04-16T17:08:26.063Z,100656.71
2023-04-16T17:13:27.629Z,100665.58
2023-04-16T17:18:29.128Z,100671.92
2023-04-16T17:23:30.893Z,100678.27
2023-04-16T17:28:32.426Z,100682.59
2023-04-16T17:33:34.583Z,100689.20
2023-04-16T17:38:36.117Z,100692.36
2023-04-16T17:43:37.718Z,100702.60
2023-04-16T17:48:39.201Z,100706.28
2023-04-16T17:53:42.719Z,100712.73
2023-04-16T17:58:44.568Z,100719.55
2023-04-16T18:03:46.402Z,100720.40
2023-04-16T18:08:48.186Z,100725.69
2023-04-16T18:13:49.764Z,100727.06
2023-04-16T18:18:51.241Z,100730.90
2023-04-16T18:23:52.722Z,100735.27
2023-04-16T18:28:54.253Z,100742.55
2023-04-16T18:33:58.109Z,100742.27
2023-04-16T18:39:02.442Z,100749.09
2023-04-16T18:44:17.797Z,100756.03
2023-04-16T18:49:19.265Z,100755.16
2023-04-16T18:54:21.076Z,100755.29
2023-04-16T18:59:22.582Z,100757.36
2023-04-16T19:04:24.119Z,100756.98
2023-04-16T19:09:27.078Z,100758.06
2023-04-16T19:14:28.552Z,100764.46
2023-04-16T19:19:30.159Z,100763.21
2023-04-16T19:24:34.056Z,100763.68
2023-04-16T19:29:35.949Z,100765.45
2023-04-16T19:34:37.468Z,100771.77
2023-04-16T19:39:38.991Z,100775.79
2023-04-16T19:44:40.841Z,100774.33
2023-04-16T19:49:43.686Z,100773.50
2023-04-16T19:54:45.258Z,100773.45
2023-04-16T19:59:46.780Z,100775.96
2023-04-16T20:04:48.580Z,100777.44
2023-04-16T20:09:50.124Z,100776.69
2023-04-16T20:14:54.124Z,100779.48
2023-04-16T20:20:00.904Z,100777.73
2023-04-16T20:25:04.087Z,100778.91
2023-04-16T20:30:06.559Z,100769.08
2023-04-16T20:35:11.116Z,100775.92
2023-04-16T20:40:15.020Z,100777.11
2023-04-16T20:45:16.635Z,100778.73
2023-04-16T20:50:18.251Z,100780.31
2023-04-16T20:55:19.906Z,100779.94
2023-04-16T21:00:27.842Z,100777.36
2023-04-16T21:05:30.111Z,100779.55
2023-04-16T21:10:31.597Z,100780.50
2023-04-16T21:15:34.685Z,100776.83
2023-04-16T21:20:36.349Z,100778.26
2023-04-16T21:25:37.832Z,100777.95
2023-04-16T21:30:39.780Z,100778.08
2023-04-16T21:35:41.756Z,100777.42
2023-04-16T21:40:43.256Z,100777.69
2023-04-16T21:45:44.796Z,100784.33
2023-04-16T21:50:46.277Z,100782.41
2023-04-16T21:55:47.736Z,100778.52
2023-04-16T22:00:49.270Z,100786.25
2023-04-16T22:05:51.695Z,100789.41
2023-04-16T22:10:59.751Z,100792.77
2023-04-16T22:16:01.438Z,100797.52
2023-04-16T22:21:03.764Z,100796.03
2023-04-16T22:26:05.320Z,100793.46
2023-04-16T22:31:07.083Z,100795.02
2023-04-16T22:36:09.320Z,100792.56
2023-04-16T22:41:10.962Z,100795.36
2023-04-16T22:46:12.605Z,100798.98
2023-04-16T22:51:14.198Z,100799.54
2023-04-16T22:56:15.775Z,100795.20
2023-04-16T23:01:17.589Z,100791.88
2023-04-16T23:06:19.213Z,100791.70
2023-04-16T23:11:20.900Z,100787.73
2023-04-16T23:16:22.428Z,100787.79
2023-04-16T23:21:24.019Z,100786.15
2023-04-16T23:26:25.696Z,100788.82
2023-04-16T23:31:27.202Z,100786.41
2023-04-16T23:36:28.815Z,100787.10
2023-04-16T23:41:30.500Z,100776.77
2023-04-16T23:46:32.093Z,100780.41
2023-04-16T23:51:33.572Z,100783.77
2023-04-16T23:56:35.627Z,100782.95
